Stella, North Carolina
Current Conditions -  °F | °C
As of 5:57 AM on Wednesday 26 Nov 2014 (Local Time) from KNJM Reporting Station
Scattered Clouds Scattered Clouds  
Wind Chill: 64°   Ceiling: Unl
Heat Index: 64°   Visibility: 10mi
Dew Point: 63°   Wind: 9mph
Humidity: 96%   Direction: 90°E
Pressure: 29.78"   Gusts: NA
Location:  34.77°N, 77.15°W
Report Text: KNJM 261057Z AUTO 09008KT 10SM FEW024 SCT034 18/17 A2978 RMK AO2 SLP089 T01780172
Loading
Personal Weather Stations






























Interactive Weather Map New forecast layout! Learn more

10-Day Weather Forecast

Advertisements
Track Severe Weather on mobile